Time;durP1;ratioP1;P1;durP2;ratioP2;P2;SDS_P1;SDS_P2;PMS_P1;PMS_P2;Temp;Humidity;BMP_temperature;BMP_pressure;BME280_temperature;BME280_humidity;BME280_pressure;Samples;Min_cycle;Max_cycle;Signal;HPM_P1;HPM_P2
2021/03/17 00:01:54;;;;;;;9.47;5.87;;;;;;;-1.76;100.00;101268.91;5012326;28;20053;-70
2021/03/17 00:04:21;;;;;;;9.13;5.07;;;;;;;-1.75;100.00;101270.66;5031426;28;20029;-70
2021/03/17 00:06:47;;;;;;;7.60;4.70;;;;;;;-1.77;100.00;101264.50;5047827;28;20375;-70
2021/03/17 00:09:13;;;;;;;8.77;5.43;;;;;;;-1.77;100.00;101264.50;5039537;28;20047;-70
2021/03/17 00:11:39;;;;;;;7.53;4.63;;;;;;;-1.80;100.00;101263.53;5008647;28;20276;-69
2021/03/17 00:14:05;;;;;;;7.20;5.13;;;;;;;-1.84;100.00;101262.53;5028022;28;20048;-70
2021/03/17 00:16:31;;;;;;;8.63;4.73;;;;;;;-1.89;100.00;101268.34;5025141;28;20033;-70
2021/03/17 00:18:58;;;;;;;8.90;4.83;;;;;;;-1.92;100.00;101273.41;5023389;28;20044;-70
2021/03/17 00:21:24;;;;;;;6.30;4.23;;;;;;;-1.99;100.00;101264.50;5028190;28;20044;-70
2021/03/17 00:23:50;;;;;;;7.13;4.47;;;;;;;-2.03;100.00;101268.66;5051720;28;20033;-70
2021/03/17 00:26:16;;;;;;;7.83;4.97;;;;;;;-2.07;100.00;101265.91;5027017;28;20256;-70
2021/03/17 00:28:44;;;;;;;7.57;4.43;;;;;;;-2.11;100.00;101269.19;5039966;28;20072;-70
2021/03/17 00:31:10;;;;;;;9.13;4.90;;;;;;;-2.16;100.00;101276.78;5043096;28;20090;-70
2021/03/17 00:33:36;;;;;;;6.93;4.07;;;;;;;-2.20;100.00;101279.16;5049971;28;20691;-70
2021/03/17 00:36:02;;;;;;;10.57;5.83;;;;;;;-2.27;100.00;101276.34;5036185;28;20161;-70
2021/03/17 00:38:28;;;;;;;7.73;4.90;;;;;;;-2.32;100.00;101275.25;5040791;28;20048;-70
2021/03/17 00:40:55;;;;;;;8.07;5.03;;;;;;;-2.37;100.00;101274.19;5042602;28;20719;-70
2021/03/17 00:43:21;;;;;;;7.10;4.67;;;;;;;-2.41;100.00;101272.31;5033723;28;20071;-70
2021/03/17 00:45:47;;;;;;;8.03;4.90;;;;;;;-2.43;100.00;101268.78;5030848;28;20083;-68
2021/03/17 00:48:13;;;;;;;7.27;4.73;;;;;;;-2.45;100.00;101277.28;5027713;28;20053;-68
2021/03/17 00:50:39;;;;;;;7.37;4.80;;;;;;;-2.48;100.00;101277.16;5037501;28;20033;-68
2021/03/17 00:53:06;;;;;;;8.93;4.93;;;;;;;-2.50;100.00;101271.91;5027922;28;20631;-68
2021/03/17 00:55:32;;;;;;;8.83;5.20;;;;;;;-2.52;100.00;101273.56;5045818;28;20469;-70
2021/03/17 00:57:58;;;;;;;7.70;4.60;;;;;;;-2.55;100.00;101270.84;5042474;28;20036;-68
2021/03/17 01:00:24;;;;;;;11.07;5.03;;;;;;;-2.56;100.00;101274.25;5028516;28;20048;-68
2021/03/17 01:02:51;;;;;;;8.27;4.80;;;;;;;-2.55;100.00;101271.72;5019913;28;20759;-68
2021/03/17 01:05:18;;;;;;;11.70;6.23;;;;;;;-2.51;100.00;101275.34;5001236;28;20037;-68
2021/03/17 01:07:44;;;;;;;8.70;4.70;;;;;;;-2.45;100.00;101275.56;5011591;28;20045;-70
2021/03/17 01:10:18;;;;;;;8.10;5.00;;;;;;;-2.39;100.00;101264.59;5046944;28;20033;-68
2021/03/17 01:12:45;;;;;;;9.63;5.50;;;;;;;-2.33;100.00;101276.09;5029860;28;20033;-68
2021/03/17 01:15:15;;;;;;;8.83;5.20;;;;;;;-2.25;100.00;101272.94;5026171;28;20489;-70
2021/03/17 01:17:42;;;;;;;9.10;5.87;;;;;;;-2.19;100.00;101284.41;5043855;28;20521;-70
2021/03/17 01:20:09;;;;;;;11.07;5.87;;;;;;;-2.16;100.00;101271.59;5012870;28;20037;-70
2021/03/17 01:22:36;;;;;;;9.03;5.57;;;;;;;-2.15;100.00;101272.47;5005245;28;20049;-70
2021/03/17 01:25:06;;;;;;;9.97;5.70;;;;;;;-2.17;100.00;101282.78;5045055;28;20042;-70
2021/03/17 01:27:32;;;;;;;10.93;5.93;;;;;;;-2.20;100.00;101279.16;5021269;28;20041;-70
2021/03/17 01:29:59;;;;;;;9.17;5.43;;;;;;;-2.19;100.00;101280.94;5029321;28;20091;-70
2021/03/17 01:32:25;;;;;;;9.03;6.00;;;;;;;-2.18;100.00;101274.97;5043493;28;20115;-70
2021/03/17 01:34:51;;;;;;;9.70;5.70;;;;;;;-2.15;100.00;101272.47;5014630;28;20041;-70
2021/03/17 01:37:17;;;;;;;11.30;5.33;;;;;;;-2.10;100.00;101274.44;5031473;28;20111;-70
2021/03/17 01:39:44;;;;;;;12.60;6.67;;;;;;;-2.04;100.00;101266.91;5041436;28;20033;-70
2021/03/17 01:42:10;;;;;;;12.40;6.13;;;;;;;-1.99;100.00;101260.22;5028790;28;20144;-70
2021/03/17 01:44:37;;;;;;;11.40;6.33;;;;;;;-1.92;100.00;101276.00;5048244;28;20072;-70
2021/03/17 01:47:03;;;;;;;9.43;5.37;;;;;;;-1.87;100.00;101279.63;5047865;28;20056;-70
2021/03/17 01:49:29;;;;;;;12.13;6.70;;;;;;;-1.81;100.00;101279.88;5047858;28;20429;-70
2021/03/17 01:51:56;;;;;;;12.23;6.93;;;;;;;-1.77;100.00;101280.06;5045992;28;20045;-70
2021/03/17 01:54:22;;;;;;;15.87;6.70;;;;;;;-1.73;100.00;101278.47;5046080;28;20429;-70
2021/03/17 01:56:48;;;;;;;9.00;5.33;;;;;;;-1.68;100.00;101278.66;5045598;28;20041;-70
2021/03/17 01:59:14;;;;;;;9.47;5.43;;;;;;;-1.65;100.00;101266.72;5013132;28;20134;-70
2021/03/17 02:01:40;;;;;;;10.20;5.63;;;;;;;-1.60;100.00;101274.63;5042995;28;20045;-70
2021/03/17 02:04:08;;;;;;;8.77;5.17;;;;;;;-1.55;100.00;101275.72;5043167;28;20047;-70
2021/03/17 02:06:34;;;;;;;10.37;6.43;;;;;;;-1.52;100.00;101268.03;5027412;28;20044;-70
2021/03/17 02:09:00;;;;;;;13.13;6.63;;;;;;;-1.49;100.00;101261.28;5045598;28;20076;-70
2021/03/17 02:11:26;;;;;;;9.00;5.07;;;;;;;-1.45;100.00;101270.06;5026543;28;20052;-70
2021/03/17 02:14:18;;;;;;;10.13;5.67;;;;;;;-1.43;100.00;101268.38;5031787;28;20036;-70
2021/03/17 02:17:05;;;;;;;8.20;5.77;;;;;;;-1.40;100.00;101268.53;5045551;28;20048;-70
2021/03/17 02:19:56;;;;;;;10.13;6.40;;;;;;;-1.37;100.00;101262.56;5031102;28;20403;-70
2021/03/17 02:22:27;;;;;;;8.90;5.00;;;;;;;-1.35;100.00;101258.31;5011397;28;20040;-70
2021/03/17 02:25:22;;;;;;;9.57;5.50;;;;;;;-1.33;100.00;101257.56;5012048;28;20040;-70
2021/03/17 02:27:51;;;;;;;;;;;;;;;-1.31;100.00;101270.56;5046372;28;20441;-70
2021/03/17 02:30:27;;;;;;;8.90;5.40;;;;;;;-1.30;100.00;101273.22;5045826;28;19936;-70
2021/03/17 02:33:16;;;;;;;9.43;5.80;;;;;;;-1.27;100.00;101264.66;5009585;28;20063;-70
2021/03/17 02:35:42;;;;;;;11.23;6.13;;;;;;;-1.26;100.00;101269.94;5042362;28;20044;-71
2021/03/17 02:38:12;;;;;;;8.27;5.27;;;;;;;-1.24;100.00;101272.56;5029248;28;20124;-72
2021/03/17 02:40:39;;;;;;;9.93;6.50;;;;;;;-1.21;100.00;101270.09;5032648;28;20048;-72
2021/03/17 02:43:15;;;;;;;10.90;6.10;;;;;;;-1.19;100.00;101265.81;5009181;28;20573;-72
2021/03/17 02:45:54;;;;;;;11.23;6.30;;;;;;;-1.20;100.00;101267.53;5028735;28;20053;-71
2021/03/17 02:48:30;;;;;;;11.10;5.47;;;;;;;-1.17;100.00;101269.38;5032720;28;20049;-71
2021/03/17 02:51:03;;;;;;;8.37;4.80;;;;;;;-1.16;100.00;101274.63;5029835;28;20036;-71
2021/03/17 02:53:32;;;;;;;8.93;5.77;;;;;;;-1.16;100.00;101274.63;4997496;28;20045;-71
2021/03/17 02:56:08;;;;;;;8.27;5.03;;;;;;;-1.14;100.00;101277.25;5023064;28;20029;-72
2021/03/17 02:58:35;;;;;;;8.23;4.70;;;;;;;-1.11;100.00;101272.19;5011750;28;20052;-72
2021/03/17 03:01:02;;;;;;;8.53;5.40;;;;;;;-1.08;100.00;101274.91;4995969;28;20037;-71
2021/03/17 03:03:32;;;;;;;7.90;5.37;;;;;;;-1.06;100.00;101267.19;5046601;28;20098;-71
2021/03/17 03:05:59;;;;;;;9.47;5.17;;;;;;;-1.04;100.00;101270.69;5022858;28;20109;-71
2021/03/17 03:08:26;;;;;;;10.20;5.40;;;;;;;-1.02;100.00;101266.44;5046046;28;20044;-71
2021/03/17 03:10:55;;;;;;;8.70;5.07;;;;;;;-1.00;100.00;101267.41;5044818;28;20086;-71
2021/03/17 03:13:24;;;;;;;11.63;6.00;;;;;;;-0.97;100.00;101268.38;5027090;28;20040;-71
2021/03/17 03:16:08;;;;;;;8.33;5.13;;;;;;;-0.95;100.00;101271.91;5018390;28;20263;-71
2021/03/17 03:18:34;;;;;;;10.53;5.80;;;;;;;-0.92;100.00;101273.75;5000357;28;20045;-71
2021/03/17 03:21:01;;;;;;;9.23;6.30;;;;;;;-0.91;100.00;101273.78;5004402;28;20049;-71
2021/03/17 03:23:28;;;;;;;8.97;5.10;;;;;;;-0.90;100.00;101274.69;5022524;28;20084;-71
2021/03/17 03:25:54;;;;;;;9.90;5.60;;;;;;;-0.90;100.00;101270.38;4999880;28;20154;-71
2021/03/17 03:28:22;;;;;;;7.63;5.07;;;;;;;-0.88;100.00;101267.81;5005021;28;20041;-71
2021/03/17 03:30:51;;;;;;;9.47;5.20;;;;;;;-0.87;100.00;101267.88;4999041;28;20049;-71
2021/03/17 03:33:18;;;;;;;7.63;4.60;;;;;;;-0.86;100.00;101272.22;4993070;28;20061;-71
2021/03/17 03:35:45;;;;;;;8.87;5.27;;;;;;;-0.86;100.00;101277.41;5009059;28;20048;-71
2021/03/17 03:38:11;;;;;;;11.93;6.77;;;;;;;-0.87;100.00;101280.84;5006905;28;20111;-72
2021/03/17 03:40:39;;;;;;;8.83;5.60;;;;;;;-0.85;100.00;101278.28;5006300;28;20164;-72
2021/03/17 03:43:06;;;;;;;7.70;5.27;;;;;;;-0.84;100.00;101274.91;5010388;28;20088;-71
2021/03/17 03:45:33;;;;;;;12.07;6.10;;;;;;;-0.84;100.00;101280.09;4998894;28;20091;-72
2021/03/17 03:48:00;;;;;;;9.20;5.70;;;;;;;-0.85;100.00;101286.97;5007986;28;20053;-71
2021/03/17 03:50:28;;;;;;;8.27;5.10;;;;;;;-0.83;100.00;101283.56;4992117;28;20457;-71
2021/03/17 03:53:14;;;;;;;10.60;5.43;;;;;;;-0.81;100.00;101281.91;5022193;28;20044;-71
2021/03/17 03:56:02;;;;;;;8.40;4.80;;;;;;;-0.81;100.00;101287.09;5025402;28;20045;-71
2021/03/17 03:58:47;;;;;;;9.13;5.43;;;;;;;-0.80;100.00;101289.72;4992629;28;20045;-71
2021/03/17 04:01:44;;;;;;;8.98;5.32;;;;;;;-0.79;100.00;101296.69;5022483;28;20037;-71
2021/03/17 04:04:12;;;;;;;9.23;5.13;;;;;;;-0.79;100.00;101291.50;4989527;28;20096;-71
2021/03/17 04:06:39;;;;;;;10.73;5.93;;;;;;;-0.78;100.00;101290.66;4991740;28;20041;-71
2021/03/17 04:09:06;;;;;;;8.17;4.97;;;;;;;-0.76;100.00;101288.13;5000144;28;20568;-71
2021/03/17 04:11:32;;;;;;;10.50;5.30;;;;;;;-0.75;100.00;101295.97;5004827;28;20068;-72
2021/03/17 04:14:02;;;;;;;9.93;6.00;;;;;;;-0.76;100.00;101299.38;4996448;28;20049;-72
2021/03/17 04:16:28;;;;;;;11.60;5.87;;;;;;;-0.76;100.00;101307.16;5026231;28;20033;-72
2021/03/17 04:18:56;;;;;;;10.27;5.30;;;;;;;-0.74;100.00;101300.34;5009906;28;20052;-71
2021/03/17 04:21:27;;;;;;;8.90;5.37;;;;;;;-0.73;100.00;101306.41;5046008;28;20629;-72
2021/03/17 04:23:54;;;;;;;9.03;4.83;;;;;;;-0.72;100.00;101305.56;4995216;28;20422;-71
2021/03/17 04:26:21;;;;;;;7.63;4.50;;;;;;;-0.70;100.00;101306.50;5029170;28;20056;-72
2021/03/17 04:28:48;;;;;;;8.73;4.83;;;;;;;-0.69;100.00;101305.66;5003861;28;20040;-72
2021/03/17 04:31:15;;;;;;;8.63;5.30;;;;;;;-0.68;100.00;101313.50;5024789;28;20498;-72
2021/03/17 04:33:43;;;;;;;9.57;5.07;;;;;;;-0.68;100.00;101308.31;5025535;28;20059;-72
2021/03/17 04:36:12;;;;;;;10.27;5.37;;;;;;;-0.67;100.00;101307.50;5026554;28;20037;-72
2021/03/17 04:38:39;;;;;;;10.60;5.20;;;;;;;-0.65;100.00;101313.63;5038393;28;20397;-72
2021/03/17 04:41:06;;;;;;;8.83;5.37;;;;;;;-0.65;100.00;101308.44;5010823;28;20053;-72
2021/03/17 04:43:36;;;;;;;6.60;5.03;;;;;;;-0.64;100.00;101307.59;5027992;28;20049;-72
2021/03/17 04:46:03;;;;;;;8.50;5.83;;;;;;;-0.63;100.00;101305.91;5006618;28;20029;-71
2021/03/17 04:48:30;;;;;;;8.47;5.53;;;;;;;-0.62;100.00;101305.06;5041406;28;20044;-72
2021/03/17 04:50:57;;;;;;;14.07;6.27;;;;;;;-0.60;100.00;101316.38;5026048;28;20049;-72
2021/03/17 04:53:23;;;;;;;9.73;5.37;;;;;;;-0.60;100.00;101301.69;5088669;23;20053;-68
2021/03/17 04:55:50;;;;;;;11.00;5.60;;;;;;;-0.61;100.00;101312.91;5004415;28;20034;-68
2021/03/17 04:58:20;;;;;;;10.37;5.80;;;;;;;-0.58;100.00;101318.22;5023231;28;20045;-68
2021/03/17 05:00:48;;;;;;;9.33;5.23;;;;;;;-0.60;100.00;101317.25;5000301;28;20042;-68
2021/03/17 05:03:16;;;;;;;11.80;6.37;;;;;;;-0.58;100.00;101326.00;5023106;28;20068;-68
2021/03/17 05:05:43;;;;;;;11.20;6.07;;;;;;;-0.57;100.00;101316.50;4989710;28;20038;-68
2021/03/17 05:08:10;;;;;;;10.93;6.00;;;;;;;-0.54;100.00;101331.28;5011219;28;20033;-68
2021/03/17 05:10:38;;;;;;;14.10;7.37;;;;;;;-0.53;100.00;101338.25;5023069;28;20044;-68
2021/03/17 05:13:09;;;;;;;12.33;7.30;;;;;;;-0.53;100.00;101331.34;4995371;28;20108;-68
2021/03/17 05:15:36;;;;;;;13.90;8.17;;;;;;;-0.54;100.00;101337.34;5001535;28;20772;-68
2021/03/17 05:18:04;;;;;;;12.80;6.80;;;;;;;-0.52;100.00;101335.69;5003879;28;20050;-68
2021/03/17 05:20:30;;;;;;;15.23;8.00;;;;;;;-0.52;100.00;101337.41;5008496;28;20057;-68
2021/03/17 05:22:57;;;;;;;14.77;9.00;;;;;;;-0.52;100.00;101338.28;5007822;28;20500;-68
2021/03/17 05:25:24;;;;;;;10.60;6.43;;;;;;;-0.52;100.00;101343.47;5005981;28;20057;-68
2021/03/17 05:27:52;;;;;;;12.30;6.60;;;;;;;-0.52;100.00;101340.88;5026002;28;20525;-68
2021/03/17 05:30:19;;;;;;;11.33;6.50;;;;;;;-0.51;100.00;101346.94;5021676;28;20045;-68
2021/03/17 05:32:49;;;;;;;16.10;7.67;;;;;;;-0.48;100.00;101344.50;5002306;28;20053;-68
2021/03/17 05:35:16;;;;;;;14.23;6.60;;;;;;;-0.48;100.00;101347.97;5011826;28;20042;-68
2021/03/17 05:37:42;;;;;;;13.07;6.80;;;;;;;-0.46;100.00;101346.28;5008327;28;20042;-68
2021/03/17 05:40:10;;;;;;;11.73;6.60;;;;;;;-0.45;100.00;101340.28;5022540;28;20041;-69
2021/03/17 05:42:38;;;;;;;12.43;6.90;;;;;;;-0.41;100.00;101354.25;4997393;28;20045;-68
2021/03/17 05:45:08;;;;;;;11.20;7.50;;;;;;;-0.39;100.00;101339.63;5004947;28;20041;-68
2021/03/17 05:47:36;;;;;;;15.77;7.77;;;;;;;-0.36;100.00;101338.00;5004432;28;20133;-68
2021/03/17 05:50:05;;;;;;;13.20;7.23;;;;;;;-0.29;100.00;101344.28;5023499;28;20437;-68
2021/03/17 05:52:32;;;;;;;14.00;8.23;;;;;;;-0.25;100.00;101345.25;4994627;28;20045;-68
2021/03/17 05:54:58;;;;;;;16.73;9.00;;;;;;;-0.19;100.00;101348.94;5009561;28;20045;-68
2021/03/17 05:57:24;;;;;;;14.97;7.77;;;;;;;-0.14;100.00;101354.31;5024705;28;20034;-68
2021/03/17 05:59:50;;;;;;;16.23;8.33;;;;;;;-0.09;100.00;101358.81;5010838;28;20548;-68
2021/03/17 06:02:17;;;;;;;17.87;9.20;;;;;;;-0.02;100.00;101355.59;5013702;28;20498;-68
2021/03/17 06:04:44;;;;;;;16.20;9.10;;;;;;;0.07;100.00;101368.00;5021636;28;20048;-68
2021/03/17 06:07:15;;;;;;;18.47;9.63;;;;;;;0.16;100.00;101375.22;5023539;28;20040;-68
2021/03/17 06:09:42;;;;;;;15.93;8.10;;;;;;;0.26;100.00;101377.31;5020554;28;20585;-69
2021/03/17 06:12:09;;;;;;;16.93;9.13;;;;;;;0.33;100.00;101371.47;5010244;28;20068;-69
2021/03/17 06:14:36;;;;;;;15.70;8.20;;;;;;;0.36;100.00;101371.56;4992664;28;20045;-69
2021/03/17 06:17:10;;;;;;;13.50;7.03;;;;;;;0.39;100.00;101378.59;5004329;28;20561;-69
2021/03/17 06:19:40;;;;;;;15.48;7.75;;;;;;;0.43;100.00;101380.47;5017103;28;20697;-68
2021/03/17 06:22:07;;;;;;;15.20;7.10;;;;;;;0.49;100.00;101386.72;5022426;28;20037;-69
2021/03/17 06:24:34;;;;;;;13.83;8.20;;;;;;;0.62;100.00;101384.53;4997154;28;20089;-69
2021/03/17 06:27:03;;;;;;;15.83;8.03;;;;;;;0.73;100.00;101390.94;5009547;28;20376;-68
2021/03/17 06:29:30;;;;;;;14.70;8.13;;;;;;;0.79;100.00;101385.91;5019727;28;20048;-69
2021/03/17 06:31:56;;;;;;;15.93;8.53;;;;;;;0.84;100.00;101380.03;5008042;28;20140;-69
2021/03/17 06:34:22;;;;;;;14.20;7.53;;;;;;;0.89;100.00;101382.75;5016291;28;20049;-69
2021/03/17 06:36:54;;;;;;;14.37;7.27;;;;;;;0.97;100.00;101394.28;5033684;28;20113;-69
2021/03/17 06:39:21;;;;;;;13.53;7.90;;;;;;;1.08;100.00;101385.06;5024839;28;20049;-69
2021/03/17 06:41:52;;;;;;;13.37;7.53;;;;;;;1.20;100.00;101392.38;5020228;28;20075;-69
2021/03/17 06:44:23;;;;;;;15.70;8.23;;;;;;;1.32;100.00;101397.03;4988740;28;20049;-69
2021/03/17 06:47:18;;;;;;;14.17;7.77;;;;;;;1.47;100.00;101399.19;5006018;28;20034;-69
2021/03/17 06:49:50;;;;;;;16.97;7.90;;;;;;;1.53;100.00;101395.06;4999860;28;20114;-69
2021/03/17 06:52:31;;;;;;;17.20;9.47;;;;;;;1.63;100.00;101399.66;5005785;28;20039;-69
2021/03/17 06:55:18;;;;;;;17.67;9.10;;;;;;;1.84;100.00;101403.69;5002366;28;20049;-69
2021/03/17 06:57:52;;;;;;;17.00;8.10;;;;;;;2.00;100.00;101400.66;5002490;28;20040;-69
2021/03/17 07:00:20;;;;;;;17.10;8.32;;;;;;;2.17;100.00;101404.56;5010027;28;20441;-69
2021/03/17 07:02:59;;;;;;;14.33;7.97;;;;;;;2.28;100.00;101407.47;5005656;28;20056;-69
2021/03/17 07:05:40;;;;;;;14.30;8.13;;;;;;;2.28;100.00;101409.19;5003030;28;20495;-68
2021/03/17 07:08:11;;;;;;;15.53;8.03;;;;;;;2.14;100.00;101407.09;5007976;28;20039;-69
2021/03/17 07:10:59;;;;;;;13.67;7.60;;;;;;;2.03;100.00;101408.56;5019411;28;20045;-69
2021/03/17 07:13:26;;;;;;;19.10;9.60;;;;;;;1.80;100.00;101415.75;5002778;28;20068;-70
2021/03/17 07:15:54;;;;;;;15.53;8.87;;;;;;;1.75;100.00;101413.84;4988479;28;20057;-69
2021/03/17 07:18:24;;;;;;;15.43;8.77;;;;;;;1.73;100.00;101423.38;5008425;28;20107;-69
2021/03/17 07:21:04;;;;;;;15.03;9.00;;;;;;;1.75;100.00;101419.06;4990890;28;20057;-69
2021/03/17 07:23:36;;;;;;;15.07;9.07;;;;;;;1.79;100.00;101415.72;5007147;28;20041;-70
2021/03/17 07:26:16;;;;;;;16.67;9.87;;;;;;;1.86;100.00;101420.25;5025807;28;20067;-69
2021/03/17 07:28:56;;;;;;;15.60;8.33;;;;;;;1.91;100.00;101431.69;5004548;28;20132;-70
2021/03/17 07:31:30;;;;;;;12.10;7.70;;;;;;;1.97;100.00;101426.63;5024935;28;20065;-70
2021/03/17 07:34:10;;;;;;;10.33;6.33;;;;;;;2.01;100.00;101424.97;5008234;28;20497;-70
2021/03/17 07:36:41;;;;;;;10.00;5.30;;;;;;;1.91;100.00;101429.94;5009285;28;20116;-69
2021/03/17 07:39:10;;;;;;;7.13;4.03;;;;;;;1.93;100.00;101436.09;5003834;28;20045;-71
2021/03/17 07:41:37;;;;;;;6.87;4.03;;;;;;;1.85;100.00;101429.81;5009212;28;20041;-70
2021/03/17 07:44:07;;;;;;;8.43;4.30;;;;;;;1.76;100.00;101434.75;5004624;28;20462;-71
2021/03/17 07:46:34;;;;;;;6.17;3.57;;;;;;;1.65;100.00;101428.34;5006292;28;20037;-72
2021/03/17 07:49:01;;;;;;;6.97;3.83;;;;;;;1.58;100.00;101431.63;4991587;28;20041;-70
2021/03/17 07:51:29;;;;;;;6.10;3.27;;;;;;;1.54;100.00;101430.66;4988116;28;20329;-71
2021/03/17 07:53:56;;;;;;;4.90;3.83;;;;;;;1.61;100.00;101439.53;5014455;28;20042;-70
2021/03/17 07:56:24;;;;;;;6.20;3.87;;;;;;;1.68;100.00;101444.06;5007401;28;20046;-70
2021/03/17 07:58:51;;;;;;;6.43;3.83;;;;;;;1.79;100.00;101440.06;5003906;28;20057;-71
2021/03/17 08:01:20;;;;;;;6.87;4.03;;;;;;;1.89;100.00;101436.84;5004584;28;20041;-71
2021/03/17 08:03:47;;;;;;;5.50;3.40;;;;;;;2.02;100.00;101440.69;4994098;28;20050;-71
2021/03/17 08:06:19;;;;;;;6.33;3.87;;;;;;;2.25;100.00;101436.06;4991154;28;20033;-70
2021/03/17 08:08:49;;;;;;;5.13;3.47;;;;;;;2.43;100.00;101438.22;5004973;28;20049;-70
2021/03/17 08:11:18;;;;;;;4.40;2.57;;;;;;;2.62;100.00;101448.31;5008641;28;20048;-72
2021/03/17 08:13:47;;;;;;;5.50;3.73;;;;;;;2.66;100.00;101442.31;5009838;28;20042;-70
2021/03/17 08:16:18;;;;;;;6.83;3.70;;;;;;;2.81;100.00;101445.28;5005203;28;20042;-71
2021/03/17 08:18:45;;;;;;;6.13;4.10;;;;;;;2.73;100.00;101453.78;4989094;28;20142;-70
2021/03/17 08:21:13;;;;;;;7.23;4.03;;;;;;;2.78;100.00;101446.94;5006873;28;20079;-70
2021/03/17 08:23:40;;;;;;;6.87;3.87;;;;;;;2.76;100.00;101448.63;5008033;28;20042;-71
2021/03/17 08:26:10;;;;;;;7.30;4.13;;;;;;;2.80;100.00;101459.19;5022593;28;20029;-70
2021/03/17 08:28:49;;;;;;;10.70;5.93;;;;;;;2.76;100.00;101454.72;5007859;28;20041;-70
2021/03/17 08:31:37;;;;;;;8.00;4.97;;;;;;;2.80;100.00;101464.41;5006811;28;20069;-72
2021/03/17 08:34:19;;;;;;;8.40;4.83;;;;;;;2.85;100.00;101459.28;5024218;28;20040;-70
2021/03/17 08:36:47;;;;;;;9.10;5.33;;;;;;;2.94;100.00;101456.88;5004405;28;20481;-70
2021/03/17 08:39:29;;;;;;;9.13;4.90;;;;;;;3.02;100.00;101455.31;4997131;28;20517;-72
2021/03/17 08:42:05;;;;;;;8.20;4.87;;;;;;;3.18;100.00;101459.16;4998306;28;20040;-70
2021/03/17 08:44:52;;;;;;;9.37;4.73;;;;;;;3.16;100.00;101460.88;5006236;28;20041;-70
2021/03/17 08:47:28;;;;;;;10.40;5.50;;;;;;;3.27;100.00;101461.97;4986194;28;20050;-72
2021/03/17 08:49:56;;;;;;;7.63;4.67;;;;;;;3.44;100.00;101464.06;5023551;28;20652;-71
2021/03/17 08:52:29;;;;;;;9.67;5.23;;;;;;;3.55;100.00;101467.81;5012976;28;20042;-72
2021/03/17 08:54:59;;;;;;;9.10;5.47;;;;;;;3.48;100.00;101473.75;5006441;28;20049;-71
2021/03/17 08:57:49;;;;;;;9.40;5.00;;;;;;;3.51;100.00;101471.19;5007031;28;20095;-71
2021/03/17 09:00:54;;;;;;;12.20;6.27;;;;;;;3.71;100.00;101476.84;5002360;28;20088;-70
2021/03/17 09:03:44;;;;;;;10.60;6.13;;;;;;;3.92;100.00;101475.53;5003656;28;20133;-70
2021/03/17 09:06:22;;;;;;;8.83;5.60;;;;;;;4.11;100.00;101479.38;5008359;28;20037;-71
2021/03/17 09:08:59;;;;;;;10.57;6.13;;;;;;;4.18;100.00;101472.53;5004834;28;20053;-70
2021/03/17 09:11:31;;;;;;;8.60;5.37;;;;;;;4.49;99.33;101480.09;5003701;28;20038;-70
2021/03/17 09:14:02;;;;;;;15.17;10.00;;;;;;;4.71;95.96;101475.22;5004726;28;20141;-70
2021/03/17 09:16:31;;;;;;;12.17;7.40;;;;;;;4.95;95.88;101469.47;4984385;28;20124;-70
2021/03/17 09:19:07;;;;;;;10.47;6.23;;;;;;;5.05;94.21;101474.91;5002762;28;20113;-70
2021/03/17 09:21:35;;;;;;;13.23;7.60;;;;;;;5.03;94.00;101479.22;5013839;28;20045;-71
2021/03/17 09:24:02;;;;;;;11.33;7.63;;;;;;;4.94;94.13;101479.06;5003546;28;20068;-71
2021/03/17 09:26:31;;;;;;;12.93;7.07;;;;;;;4.80;93.75;101486.72;5005433;28;20034;-69
2021/03/17 09:29:07;;;;;;;13.57;7.63;;;;;;;4.43;92.67;101482.59;4987018;28;20696;-71
2021/03/17 09:31:36;;;;;;;13.50;7.03;;;;;;;4.36;96.06;101487.69;4999258;28;20056;-70
2021/03/17 09:34:03;;;;;;;14.60;8.30;;;;;;;4.23;96.54;101492.69;4998585;28;20371;-71
2021/03/17 09:36:29;;;;;;;13.13;7.43;;;;;;;4.21;97.98;101504.00;5024381;28;20037;-69
2021/03/17 09:38:56;;;;;;;13.67;8.03;;;;;;;4.25;98.67;101503.19;4993025;28;20564;-69
2021/03/17 09:41:28;;;;;;;10.80;6.30;;;;;;;4.30;98.21;101501.56;4998027;28;20107;-70
2021/03/17 09:44:05;;;;;;;14.93;7.80;;;;;;;4.36;98.00;101496.41;5016909;28;20111;-70
2021/03/17 09:46:42;;;;;;;14.35;7.95;;;;;;;4.34;97.55;101505.97;4986258;28;20073;-70
2021/03/17 09:49:11;;;;;;;14.57;6.80;;;;;;;4.13;97.73;101503.84;5002926;28;20068;-71
2021/03/17 09:51:40;;;;;;;11.13;6.70;;;;;;;4.08;99.03;101504.59;5022017;28;20604;-70
2021/03/17 09:54:09;;;;;;;12.80;8.20;;;;;;;4.10;99.98;101503.78;5001739;28;20048;-71
2021/03/17 09:56:37;;;;;;;10.80;6.33;;;;;;;4.04;99.92;101514.13;5006511;28;20057;-70
2021/03/17 09:59:19;;;;;;;10.60;6.10;;;;;;;4.21;100.00;101509.22;5035214;28;20037;-70
2021/03/17 10:01:56;;;;;;;11.83;7.07;;;;;;;4.42;99.91;101501.75;5026171;28;20142;-69
2021/03/17 10:04:30;;;;;;;11.40;7.73;;;;;;;4.51;100.00;101507.16;5002536;28;20049;-70
2021/03/17 10:06:58;;;;;;;11.48;7.22;;;;;;;4.67;97.64;101510.03;5026092;28;20036;-72
2021/03/17 10:09:26;;;;;;;11.57;7.20;;;;;;;4.71;96.37;101504.03;5004660;28;20045;-70
2021/03/17 10:11:59;;;;;;;12.73;7.07;;;;;;;4.85;96.26;101507.72;5005713;28;20545;-71
2021/03/17 10:14:25;;;;;;;10.63;7.40;;;;;;;5.06;93.69;101504.59;4993362;28;20042;-72
2021/03/17 10:16:54;;;;;;;12.47;7.20;;;;;;;5.27;94.36;101504.00;5021207;28;20112;-70
2021/03/17 10:19:20;;;;;;;11.17;6.70;;;;;;;5.44;94.27;101501.63;5009098;28;20052;-70
2021/03/17 10:21:48;;;;;;;11.63;7.20;;;;;;;5.45;93.87;101498.16;4993850;28;20758;-69
2021/03/17 10:24:14;;;;;;;9.70;5.53;;;;;;;5.22;94.07;101503.09;5005336;28;20049;-70
2021/03/17 10:26:41;;;;;;;9.60;5.77;;;;;;;5.40;96.68;101500.72;4991340;28;20041;-70
2021/03/17 10:29:08;;;;;;;9.73;5.70;;;;;;;5.60;95.82;101499.25;5023586;28;20049;-71
2021/03/17 10:31:36;;;;;;;8.50;5.60;;;;;;;6.12;94.89;101499.03;4986648;28;20033;-70
2021/03/17 10:34:13;;;;;;;8.90;5.60;;;;;;;6.52;89.64;101500.31;5002262;28;20657;-70
2021/03/17 10:36:39;;;;;;;9.83;5.50;;;;;;;6.91;89.32;101494.56;5004375;28;20096;-72
2021/03/17 10:39:06;;;;;;;7.97;4.83;;;;;;;7.40;88.43;101494.88;5002369;28;20064;-72
2021/03/17 10:41:44;;;;;;;10.10;5.80;;;;;;;7.38;84.12;101491.34;5006014;28;20041;-70
2021/03/17 10:44:23;;;;;;;8.87;5.53;;;;;;;7.41;83.76;101495.78;5004528;28;20104;-71
2021/03/17 10:47:09;;;;;;;8.33;4.73;;;;;;;7.64;85.82;101499.38;5001049;28;20044;-68
2021/03/17 10:49:45;;;;;;;7.43;5.00;;;;;;;7.41;82.22;101496.66;4973705;28;20438;-68
2021/03/17 10:52:12;;;;;;;8.53;5.20;;;;;;;7.72;84.65;101500.28;5013536;28;20050;-68
2021/03/17 10:54:39;;;;;;;7.77;4.83;;;;;;;6.50;82.32;101494.19;5025998;28;20144;-68
2021/03/17 10:57:18;;;;;;;10.10;5.40;;;;;;;6.00;85.03;101498.91;5025634;28;20034;-67
2021/03/17 10:59:44;;;;;;;7.67;4.37;;;;;;;5.34;88.16;101504.13;5025902;28;20041;-68
2021/03/17 11:02:28;;;;;;;9.90;5.87;;;;;;;5.31;91.79;101511.97;5006852;28;20034;-68
2021/03/17 11:05:17;;;;;;;6.45;4.57;;;;;;;5.53;92.08;101502.63;4991192;28;20045;-67
2021/03/17 11:08:05;;;;;;;7.17;4.87;;;;;;;6.06;93.03;101510.34;5022116;28;20056;-68
2021/03/17 11:10:31;;;;;;;6.57;4.53;;;;;;;7.26;94.33;101507.06;5025357;28;20235;-68
2021/03/17 11:13:10;;;;;;;7.47;5.00;;;;;;;8.60;94.41;101499.72;5023809;28;20038;-69
2021/03/17 11:15:42;;;;;;;7.00;4.17;;;;;;;9.93;81.67;101495.97;5023379;28;20064;-69
2021/03/17 11:18:09;;;;;;;47.35;24.98;;;;;;;10.32;75.36;101486.97;5022499;28;20499;-69
2021/03/17 11:20:43;;;;;;;11.43;6.72;;;;;;;10.68;74.48;101497.31;5022504;28;20116;-69
2021/03/17 11:23:19;;;;;;;4.88;3.03;;;;;;;10.87;75.68;101490.13;5000262;28;20045;-69
2021/03/17 11:25:45;;;;;;;4.03;2.67;;;;;;;10.87;66.55;101499.81;5002402;28;20108;-69
2021/03/17 11:28:19;;;;;;;3.50;2.35;;;;;;;10.82;64.72;101489.25;5024264;28;20060;-69
2021/03/17 11:30:48;;;;;;;2.63;1.80;;;;;;;10.75;65.26;101495.47;5008417;28;20033;-69
2021/03/17 11:33:15;;;;;;;3.08;2.25;;;;;;;10.92;70.35;101495.34;5007652;28;20053;-68
2021/03/17 11:35:43;;;;;;;9.57;5.40;;;;;;;11.61;67.34;101490.25;5026297;28;20108;-69